Time;durP1;ratioP1;P1;durP2;ratioP2;P2;SDS_P1;SDS_P2;PMS_P1;PMS_P2;Temp;Humidity;BMP_temperature;BMP_pressure;BME280_temperature;BME280_humidity;BME280_pressure;Samples;Min_cycle;Max_cycle;Signal;HPM_P1;HPM_P2
2023/10/10 00:02:28;;;;;;;11.20;3.45;;;18.90;99.40;;;;;;5013886;28;20029;-38
2023/10/10 00:04:54;;;;;;;8.38;3.08;;;18.90;99.40;;;;;;5013713;28;20022;-38
2023/10/10 00:07:20;;;;;;;11.10;3.65;;;18.90;99.40;;;;;;5013561;28;20026;-37
2023/10/10 00:09:46;;;;;;;10.63;4.00;;;18.90;99.40;;;;;;5013696;28;20071;-38
2023/10/10 00:12:25;;;;;;;8.80;3.88;;;18.90;99.40;;;;;;5013551;28;20080;-36
2023/10/10 00:14:52;;;;;;;9.38;3.42;;;18.90;99.40;;;;;;5013503;28;20105;-38
2023/10/10 00:17:20;;;;;;;7.07;3.20;;;18.90;99.40;;;;;;5013489;28;20026;-36
2023/10/10 00:19:52;;;;;;;10.57;3.65;;;18.90;99.40;;;;;;5013480;28;20572;-38
2023/10/10 00:22:26;;;;;;;6.97;3.25;;;18.90;99.40;;;;;;5013364;28;20026;-37
2023/10/10 00:24:52;;;;;;;13.13;3.70;;;18.90;99.40;;;;;;5013284;28;20026;-39
2023/10/10 00:27:18;;;;;;;7.07;3.05;;;18.90;99.40;;;;;;5013285;28;20541;-39
2023/10/10 00:29:43;;;;;;;10.35;3.53;;;18.90;99.40;;;;;;5013255;28;20599;-44
2023/10/10 00:32:16;;;;;;;11.60;3.85;;;18.90;99.40;;;;;;5013262;28;20125;-37
2023/10/10 00:34:47;;;;;;;8.00;3.53;;;18.90;99.40;;;;;;5010874;28;20018;-39
2023/10/10 00:37:20;;;;;;;9.48;3.10;;;18.90;99.40;;;;;;5013108;28;20014;-41
2023/10/10 00:39:52;;;;;;;8.20;3.20;;;18.90;99.40;;;;;;5013198;28;20484;-45
2023/10/10 00:42:36;;;;;;;9.30;3.42;;;18.90;99.40;;;;;;5013244;28;20033;-39
2023/10/10 00:45:09;;;;;;;7.82;3.35;;;18.90;99.40;;;;;;5013118;28;20026;-37
2023/10/10 00:47:41;;;;;;;13.77;3.50;;;18.90;99.40;;;;;;5013328;28;20541;-38
2023/10/10 00:50:08;;;;;;;8.85;3.47;;;18.90;99.40;;;;;;5013332;28;20034;-41
2023/10/10 00:52:37;;;;;;;10.25;3.60;;;18.90;99.40;;;;;;5014106;28;20026;-38
2023/10/10 00:55:04;;;;;;;7.57;3.50;;;18.90;99.40;;;;;;5013589;28;20026;-39
2023/10/10 00:57:35;;;;;;;7.10;3.50;;;18.90;99.40;;;;;;5012884;28;20101;-41
2023/10/10 01:00:07;;;;;;;7.95;3.38;;;18.90;99.40;;;;;;5012651;28;20022;-38
2023/10/10 01:02:34;;;;;;;11.10;3.50;;;18.80;99.40;;;;;;5012839;28;20061;-38
2023/10/10 01:05:11;;;;;;;8.00;3.50;;;18.80;99.40;;;;;;5012452;28;20026;-39
2023/10/10 01:07:43;;;;;;;12.73;3.33;;;18.80;99.40;;;;;;5012465;28;20061;-37
2023/10/10 01:10:12;;;;;;;9.30;3.28;;;18.80;99.70;;;;;;5012488;28;20026;-39
2023/10/10 01:12:39;;;;;;;11.45;3.42;;;18.80;99.40;;;;;;5012457;28;20025;-39
2023/10/10 01:15:24;;;;;;;10.20;3.70;;;18.80;99.40;;;;;;5012360;28;20026;-38
2023/10/10 01:17:50;;;;;;;10.10;3.40;;;18.80;99.40;;;;;;5012482;28;20392;-36
2023/10/10 01:20:33;;;;;;;9.10;3.53;;;18.80;99.40;;;;;;5012284;28;20037;-36
2023/10/10 01:23:00;;;;;;;10.10;3.72;;;18.80;99.40;;;;;;5012553;28;20037;-36
2023/10/10 01:28:05;;;;;;;8.95;3.28;;;18.80;99.40;;;;;;5012253;28;20476;-38
2023/10/10 01:30:44;;;;;;;11.70;4.30;;;18.80;99.40;;;;;;5012228;28;20391;-35
2023/10/10 01:33:22;;;;;;;8.63;3.28;;;18.80;99.40;;;;;;5012128;28;20550;-38
2023/10/10 01:35:49;;;;;;;14.55;3.22;;;18.80;99.40;;;;;;5033948;23;20034;-36
2023/10/10 01:38:55;;;;;;;6.95;3.20;;;18.80;99.40;;;;;;5011507;28;20037;-35
2023/10/10 01:41:40;;;;;;;10.35;3.08;;;18.80;99.70;;;;;;5011900;28;20022;-34
2023/10/10 01:44:11;;;;;;;7.65;3.08;;;18.80;99.40;;;;;;5011907;28;20022;-36
2023/10/10 01:46:37;;;;;;;10.70;3.40;;;18.80;99.40;;;;;;5011443;28;20433;-37
2023/10/10 01:49:05;;;;;;;8.02;3.25;;;18.80;99.40;;;;;;5011940;28;20024;-34
2023/10/10 01:51:33;;;;;;;9.65;2.88;;;18.80;99.40;;;;;;5011909;28;20128;-34
2023/10/10 01:54:00;;;;;;;11.48;3.60;;;18.80;99.40;;;;;;5011895;28;20029;-37
2023/10/10 01:56:28;;;;;;;7.05;3.25;;;18.80;99.70;;;;;;5011599;28;20030;-33
2023/10/10 01:58:54;;;;;;;8.32;3.28;;;18.80;99.30;;;;;;5011722;28;20048;-38
2023/10/10 02:01:23;;;;;;;7.88;2.88;;;18.80;99.30;;;;;;5011746;28;20029;-36
2023/10/10 02:03:50;;;;;;;9.48;3.10;;;18.80;99.30;;;;;;5011724;28;20022;-38
2023/10/10 02:06:28;;;;;;;7.22;3.05;;;18.80;99.40;;;;;;5011400;28;20026;-36
2023/10/10 02:09:00;;;;;;;8.80;3.38;;;18.80;99.40;;;;;;5011676;28;20017;-36
2023/10/10 02:11:26;;;;;;;9.25;3.50;;;18.80;99.40;;;;;;5011522;28;20033;-39
2023/10/10 02:13:53;;;;;;;12.88;4.07;;;18.80;99.40;;;;;;5011821;28;20037;-38
2023/10/10 02:16:23;;;;;;;11.13;3.42;;;18.80;99.40;;;;;;5011319;28;20391;-41
2023/10/10 02:18:51;;;;;;;8.73;3.50;;;18.80;99.40;;;;;;5011573;28;20104;-40
2023/10/10 02:21:42;;;;;;;8.90;3.25;;;18.80;99.40;;;;;;5011537;28;20026;-41
2023/10/10 02:26:52;;;;;;;9.52;3.25;;;18.70;99.30;;;;;;5011429;28;20022;-36
2023/10/10 02:29:33;;;;;;;10.88;3.67;;;18.80;99.40;;;;;;5011505;28;20535;-39
2023/10/10 02:32:10;;;;;;;9.65;3.13;;;18.70;99.30;;;;;;5011388;28;20030;-40
2023/10/10 02:34:36;;;;;;;8.35;3.20;;;18.70;99.30;;;;;;5011393;28;20025;-39
2023/10/10 02:37:13;;;;;;;8.43;3.20;;;18.70;99.30;;;;;;5011117;28;20036;-39
2023/10/10 02:39:47;;;;;;;10.88;3.53;;;18.70;99.40;;;;;;5011400;28;20057;-39
2023/10/10 02:42:19;;;;;;;10.95;3.85;;;18.70;99.70;;;;;;4993739;28;20026;-37
2023/10/10 02:44:52;;;;;;;13.32;4.10;;;18.70;99.30;;;;;;5011107;28;20022;-37
2023/10/10 02:47:30;;;;;;;6.97;3.25;;;18.70;99.30;;;;;;5011166;28;20026;-38
2023/10/10 02:50:14;;;;;;;7.50;3.13;;;18.70;99.30;;;;;;5011295;28;20101;-40
2023/10/10 02:52:45;;;;;;;9.50;3.10;;;18.70;99.30;;;;;;5011295;28;20042;-39
2023/10/10 02:55:22;;;;;;;12.25;3.30;;;18.70;99.30;;;;;;5011024;28;20506;-41
2023/10/10 02:57:51;;;;;;;7.22;2.97;;;18.70;99.30;;;;;;5012755;28;20037;-38
2023/10/10 03:02:53;;;;;;;11.23;3.70;;;18.70;99.30;;;;;;5014990;28;20037;-40
2023/10/10 03:05:38;;;;;;;8.63;3.10;;;18.70;99.30;;;;;;5014773;28;20038;-41
2023/10/10 03:08:12;;;;;;;;;;;18.70;99.30;;;;;;5015264;28;20109;-40
2023/10/10 03:10:41;;;;;;;7.93;3.10;;;18.70;99.30;;;;;;5014909;28;19916;-41
2023/10/10 03:13:27;;;;;;;9.55;3.50;;;18.70;99.30;;;;;;5014845;28;20030;-41
2023/10/10 03:15:55;;;;;;;8.32;3.30;;;18.70;99.30;;;;;;5014431;28;20027;-41
2023/10/10 03:18:30;;;;;;;9.63;3.03;;;18.70;99.30;;;;;;5014908;28;20395;-40
2023/10/10 03:21:18;;;;;;;5.88;3.13;;;18.70;99.30;;;;;;5014674;28;20018;-41
2023/10/10 03:23:53;;;;;;;11.23;3.70;;;18.70;99.30;;;;;;5014524;28;20021;-41
2023/10/10 03:26:35;;;;;;;9.18;3.30;;;18.70;99.30;;;;;;5014161;28;20030;-38
2023/10/10 03:29:04;;;;;;;6.97;3.10;;;18.70;99.70;;;;;;5014504;28;20026;-38
2023/10/10 03:31:38;;;;;;;8.25;3.35;;;18.70;99.30;;;;;;5014402;28;20022;-41
2023/10/10 03:34:10;;;;;;;;;;;18.70;99.30;;;;;;5014932;28;20516;-41
2023/10/10 03:36:44;;;;;;;9.32;3.33;;;18.60;99.30;;;;;;5013983;28;20267;-41
2023/10/10 03:39:41;;;;;;;8.70;3.27;;;18.70;99.30;;;;;;5014644;28;20032;-41
2023/10/10 05:23:34;;;;;;;20.33;5.72;;;17.40;99.60;;;;;;5012528;28;20060;-40
2023/10/10 05:26:02;;;;;;;20.90;5.38;;;17.40;99.60;;;;;;5012013;28;20038;-39
2023/10/10 05:28:32;;;;;;;11.43;4.63;;;17.60;99.60;;;;;;5012317;28;20115;-36
2023/10/10 05:30:59;;;;;;;18.25;5.35;;;17.60;99.50;;;;;;5012271;28;20018;-36
2023/10/10 05:33:26;;;;;;;15.38;4.78;;;17.70;99.50;;;;;;5012113;28;20025;-41
2023/10/10 05:36:04;;;;;;;14.52;4.68;;;17.70;99.40;;;;;;5011721;28;20029;-39
2023/10/10 05:38:33;;;;;;;19.00;5.03;;;17.80;99.40;;;;;;5012138;28;20029;-39
2023/10/10 05:41:02;;;;;;;14.32;4.47;;;17.90;99.30;;;;;;5011999;28;20088;-40
2023/10/10 05:43:33;;;;;;;16.15;5.05;;;17.90;99.30;;;;;;5012042;28;20032;-39
2023/10/10 05:46:00;;;;;;;15.80;4.55;;;17.90;99.20;;;;;;5011468;28;20497;-40
2023/10/10 05:48:26;;;;;;;13.48;4.38;;;17.90;99.20;;;;;;5011981;28;20387;-39
2023/10/10 05:50:53;;;;;;;12.93;4.85;;;18.00;99.20;;;;;;5011843;28;20026;-38
2023/10/10 05:53:20;;;;;;;17.65;5.30;;;18.00;99.20;;;;;;5011894;28;20022;-40
2023/10/10 05:55:53;;;;;;;11.25;4.68;;;18.00;99.10;;;;;;4993906;28;20476;-40
2023/10/10 05:58:19;;;;;;;13.13;4.65;;;18.00;99.10;;;;;;5011738;28;20029;-37
2023/10/10 06:00:48;;;;;;;16.90;5.68;;;18.00;99.10;;;;;;5011733;28;20071;-38
2023/10/10 06:03:16;;;;;;;12.68;4.65;;;18.00;99.10;;;;;;5011810;28;20033;-40
2023/10/10 06:05:46;;;;;;;18.58;5.13;;;18.10;99.10;;;;;;5012030;28;20053;-40
2023/10/10 06:08:12;;;;;;;11.27;4.70;;;18.10;99.10;;;;;;5011665;28;20140;-37
2023/10/10 06:10:38;;;;;;;9.95;4.30;;;18.10;99.10;;;;;;5011579;28;20022;-38
2023/10/10 06:13:06;;;;;;;12.75;4.72;;;18.10;99.00;;;;;;5011501;28;20022;-40
2023/10/10 06:15:34;;;;;;;13.85;4.38;;;18.10;99.00;;;;;;5011846;28;20104;-38
2023/10/10 06:18:18;;;;;;;13.43;4.95;;;18.10;99.00;;;;;;5011452;28;20022;-39
2023/10/10 06:20:45;;;;;;;17.13;5.25;;;18.10;99.00;;;;;;5011517;28;20041;-38
2023/10/10 06:23:14;;;;;;;11.88;4.50;;;18.20;99.00;;;;;;5011512;28;20048;-40
2023/10/10 06:25:41;;;;;;;13.23;4.88;;;18.20;99.00;;;;;;5011163;28;20037;-40
2023/10/10 06:28:18;;;;;;;11.93;4.90;;;18.20;98.90;;;;;;5011403;28;20084;-40
2023/10/10 06:30:44;;;;;;;16.58;4.85;;;18.20;98.90;;;;;;5011485;28;20080;-37
2023/10/10 06:33:14;;;;;;;10.90;4.40;;;18.20;99.20;;;;;;5013794;28;20022;-39
2023/10/10 06:35:40;;;;;;;12.57;4.72;;;18.20;98.90;;;;;;5015197;28;20033;-38
2023/10/10 06:38:10;;;;;;;14.00;5.00;;;18.20;98.90;;;;;;5015291;28;20496;-38
2023/10/10 06:40:42;;;;;;;9.95;3.97;;;18.30;98.90;;;;;;5015554;28;20085;-40
2023/10/10 06:43:08;;;;;;;13.32;4.90;;;18.30;98.90;;;;;;5015341;28;20029;-40
2023/10/10 06:45:40;;;;;;;13.07;5.07;;;18.30;98.90;;;;;;5015002;28;20109;-38
2023/10/10 06:48:08;;;;;;;11.23;4.72;;;18.30;98.80;;;;;;5015141;28;20160;-40
2023/10/10 06:50:38;;;;;;;11.60;5.22;;;18.30;98.80;;;;;;5015072;28;20527;-40
2023/10/10 06:53:04;;;;;;;13.45;4.53;;;18.40;98.80;;;;;;5015240;28;20108;-37
2023/10/10 06:55:38;;;;;;;10.40;4.82;;;18.40;98.80;;;;;;5014932;28;20073;-39
2023/10/10 06:58:06;;;;;;;10.43;4.68;;;18.40;98.80;;;;;;5014965;28;20093;-39
2023/10/10 07:00:55;;;;;;;10.48;4.57;;;18.40;98.80;;;;;;5014947;28;20073;-40
2023/10/10 07:03:27;;;;;;;12.65;4.40;;;18.40;98.80;;;;;;5014460;28;20069;-41
2023/10/10 07:05:56;;;;;;;10.50;4.50;;;18.40;98.70;;;;;;5014614;28;20018;-40
2023/10/10 07:08:27;;;;;;;13.13;4.65;;;18.40;98.70;;;;;;5014896;28;20025;-39
2023/10/10 07:10:53;;;;;;;9.50;4.55;;;18.50;98.80;;;;;;5014857;28;20029;-40
2023/10/10 07:13:20;;;;;;;11.38;4.63;;;18.50;98.70;;;;;;5014712;28;20022;-39
2023/10/10 07:15:52;;;;;;;10.23;4.32;;;18.50;98.70;;;;;;5014519;28;20411;-40
2023/10/10 07:18:24;;;;;;;8.85;3.92;;;18.50;98.70;;;;;;5014707;28;20403;-39
2023/10/10 07:21:08;;;;;;;10.35;4.57;;;18.50;98.70;;;;;;5014471;28;20062;-40
2023/10/10 07:23:38;;;;;;;9.35;4.45;;;18.60;98.70;;;;;;5014627;28;20390;-40
2023/10/10 07:26:18;;;;;;;8.55;4.13;;;18.60;98.70;;;;;;5014091;28;20022;-40
2023/10/10 07:28:52;;;;;;;11.00;4.32;;;18.60;98.70;;;;;;5013221;28;20117;-40
2023/10/10 07:31:23;;;;;;;10.38;4.18;;;18.60;98.60;;;;;;5014371;28;20368;-40
2023/10/10 07:33:56;;;;;;;7.53;3.50;;;18.60;98.70;;;;;;5014376;28;20029;-40
2023/10/10 07:36:26;;;;;;;9.18;4.40;;;18.60;98.70;;;;;;5032166;23;20044;-40
2023/10/10 07:39:32;;;;;;;10.27;4.45;;;18.70;98.70;;;;;;4994572;28;20034;-39
2023/10/10 07:41:44;;;;;;;8.85;4.43;;;18.70;98.60;;;;;;4994368;28;20173;-35
2023/10/10 07:44:10;;;;;;;8.35;4.20;;;18.70;98.70;;;;;;4994027;28;20014;-35
2023/10/10 07:46:36;;;;;;;8.93;4.18;;;18.70;98.60;;;;;;4994287;28;20033;-35
2023/10/10 07:49:03;;;;;;;10.25;4.00;;;18.70;98.60;;;;;;4994491;28;20399;-36
2023/10/10 07:51:29;;;;;;;7.25;4.15;;;18.80;98.70;;;;;;4994549;28;20121;-35
2023/10/10 07:54:10;;;;;;;8.60;4.40;;;18.80;98.70;;;;;;4994585;28;20464;-35
2023/10/10 07:56:44;;;;;;;10.15;3.80;;;18.80;98.70;;;;;;4994212;28;20058;-35
2023/10/10 07:59:14;;;;;;;11.18;3.83;;;18.80;98.70;;;;;;4994337;28;20361;-36
2023/10/10 08:01:44;;;;;;;7.35;3.85;;;18.80;98.70;;;;;;4994251;28;20041;-38
2023/10/10 08:04:14;;;;;;;7.45;4.32;;;18.90;98.70;;;;;;4994314;28;20184;-37
2023/10/10 08:06:44;;;;;;;7.80;3.60;;;18.90;98.70;;;;;;4994506;28;20022;-38
2023/10/10 08:11:43;;;;;;;9.25;4.15;;;18.90;98.60;;;;;;4994237;28;20026;-40
2023/10/10 08:14:09;;;;;;;10.35;4.38;;;19.00;98.70;;;;;;4994189;28;20033;-40
2023/10/10 08:16:36;;;;;;;8.20;3.60;;;19.00;98.70;;;;;;4993859;28;20101;-37
2023/10/10 08:19:06;;;;;;;10.05;4.47;;;19.00;98.60;;;;;;4994047;28;20037;-38
2023/10/10 08:21:39;;;;;;;7.65;3.90;;;19.00;98.60;;;;;;4976469;28;20442;-42
2023/10/10 08:24:07;;;;;;;8.13;3.95;;;19.00;98.60;;;;;;4994056;28;20033;-40
2023/10/10 08:26:40;;;;;;;9.77;4.25;;;19.10;98.60;;;;;;4993511;28;20026;-38
2023/10/10 08:29:08;;;;;;;8.77;4.20;;;19.10;98.60;;;;;;4993891;28;20628;-38
2023/10/10 08:31:36;;;;;;;8.63;4.30;;;19.10;98.60;;;;;;4993660;28;20027;-38
2023/10/10 08:34:02;;;;;;;7.30;3.80;;;19.20;98.60;;;;;;4993743;28;20477;-36
2023/10/10 08:36:27;;;;;;;8.93;4.20;;;19.20;98.50;;;;;;4993330;28;20109;-39
2023/10/10 08:38:56;;;;;;;8.75;4.07;;;19.30;98.60;;;;;;4993493;28;20034;-42
2023/10/10 08:41:30;;;;;;;7.75;3.70;;;19.30;98.50;;;;;;4992575;28;20089;-38
2023/10/10 08:44:01;;;;;;;9.40;4.22;;;19.30;98.50;;;;;;4993760;28;20140;-41
2023/10/10 08:46:31;;;;;;;6.13;3.60;;;19.40;98.50;;;;;;4993374;28;20023;-41
2023/10/10 08:49:03;;;;;;;7.22;3.90;;;19.40;98.40;;;;;;4993497;28;20491;-40
2023/10/10 08:51:32;;;;;;;6.88;3.88;;;19.40;98.40;;;;;;4993232;28;20022;-41
2023/10/10 08:54:02;;;;;;;7.68;3.83;;;19.40;98.40;;;;;;4993946;28;20097;-39
2023/10/10 08:56:37;;;;;;;7.30;3.50;;;19.50;98.40;;;;;;4992449;28;20558;-39
2023/10/10 08:59:03;;;;;;;7.70;3.45;;;19.50;98.40;;;;;;4993254;28;20483;-36
2023/10/10 09:01:33;;;;;;;7.32;4.07;;;19.50;98.40;;;;;;4993067;28;20476;-38
2023/10/10 09:04:02;;;;;;;8.13;3.72;;;19.60;98.40;;;;;;4992909;28;20399;-34
2023/10/10 09:06:43;;;;;;;11.60;3.60;;;19.60;98.40;;;;;;4992759;28;20057;-35
2023/10/10 09:11:53;;;;;;;6.82;3.60;;;19.60;98.40;;;;;;4993456;28;20396;-38
2023/10/10 09:14:19;;;;;;;7.97;3.70;;;19.60;98.10;;;;;;4991508;28;20023;-38
2023/10/10 09:16:44;;;;;;;7.10;3.40;;;19.60;98.30;;;;;;4975345;28;20110;-38
2023/10/10 09:19:10;;;;;;;9.02;3.80;;;19.60;98.40;;;;;;4992817;28;20031;-45
2023/10/10 09:21:44;;;;;;;7.32;3.60;;;19.60;98.40;;;;;;4992784;28;20019;-35
2023/10/10 09:24:31;;;;;;;11.05;3.63;;;19.60;98.40;;;;;;4992726;28;20033;-38
2023/10/10 09:26:59;;;;;;;20.90;5.68;;;19.60;98.40;;;;;;4992535;28;20403;-36
2023/10/10 09:29:32;;;;;;;21.48;5.78;;;19.60;99.10;;;;;;4992724;28;20023;-36
2023/10/10 09:31:59;;;;;;;20.63;6.15;;;19.70;99.90;;;;;;4992747;28;20046;-36
2023/10/10 09:34:29;;;;;;;17.85;6.20;;;19.70;99.90;;;;;;4992643;28;20023;-36
2023/10/10 09:36:57;;;;;;;21.25;5.93;;;19.70;99.90;;;;;;4992287;28;20034;-36
2023/10/10 09:39:37;;;;;;;19.63;5.78;;;19.70;99.90;;;;;;4993172;28;20021;-36
2023/10/10 09:44:53;;;;;;;36.58;6.15;;;19.80;99.90;;;;;;4995534;28;20104;-37
2023/10/10 09:52:53;;;;;;;24.10;5.78;;;20.00;99.90;;;;;;4992508;28;20383;-37
2023/10/10 09:55:39;;;;;;;32.58;5.60;;;20.00;99.90;;;;;;4992223;28;20030;-37
2023/10/10 10:03:55;;;;;;;20.83;4.80;;;20.10;99.90;;;;;;4992141;28;20036;-35
2023/10/10 10:06:35;;;;;;;18.25;5.28;;;20.10;99.90;;;;;;4983528;28;20030;-35
2023/10/10 10:09:17;;;;;;;22.15;5.20;;;20.10;99.90;;;;;;4992079;28;20491;-35
2023/10/10 10:12:36;;;;;;;25.67;5.13;;;20.20;99.90;;;;;;4992008;28;20104;-37
2023/10/10 10:15:48;;;;;;;24.85;5.32;;;20.10;99.90;;;;;;4988478;28;20562;-38
2023/10/10 10:18:26;;;;;;;27.98;4.55;;;20.10;99.90;;;;;;4992004;28;20034;-36
2023/10/10 10:21:18;;;;;;;23.92;5.57;;;20.20;99.90;;;;;;4991820;28;20089;-35
2023/10/10 10:23:47;;;;;;;32.25;5.10;;;20.20;99.90;;;;;;4991905;28;20081;-37
2023/10/10 10:26:31;;;;;;;31.48;5.82;;;20.30;99.90;;;;;;4991617;28;20112;-36
2023/10/10 10:28:57;;;;;;;32.28;4.80;;;20.30;99.90;;;;;;4992163;28;20034;-37
2023/10/10 10:31:29;;;;;;;19.90;5.05;;;20.40;99.90;;;;;;4991749;28;20338;-37
2023/10/10 10:34:23;;;;;;;29.40;5.18;;;20.30;99.90;;;;;;4991900;28;20022;-36
2023/10/10 10:37:02;;;;;;;25.92;5.38;;;20.30;99.90;;;;;;4991607;28;20034;-39
2023/10/10 10:39:37;;;;;;;25.65;4.60;;;20.30;99.90;;;;;;4991861;28;20506;-38
2023/10/10 10:42:23;;;;;;;26.80;5.55;;;20.40;99.90;;;;;;4991762;28;20439;-39
2023/10/10 10:44:58;;;;;;;21.48;5.15;;;20.40;99.90;;;;;;4991611;28;20031;-37
2023/10/10 10:47:45;;;;;;;24.38;4.57;;;20.40;99.90;;;;;;4974198;28;20110;-40
2023/10/10 10:50:28;;;;;;;24.27;5.53;;;20.40;99.90;;;;;;4974095;28;20472;-37
2023/10/10 10:53:06;;;;;;;28.13;5.32;;;20.50;99.90;;;;;;4991740;28;20511;-40
2023/10/10 10:55:39;;;;;;;23.10;4.70;;;20.50;99.90;;;;;;4991645;28;20185;-37
2023/10/10 10:58:08;;;;;;;21.25;5.30;;;20.50;99.90;;;;;;4991491;28;20026;-39
2023/10/10 11:03:33;;;;;;;23.98;4.82;;;20.70;99.90;;;;;;4991836;28;20033;-36
2023/10/10 11:06:07;;;;;;;26.73;5.47;;;20.70;99.90;;;;;;4991427;28;20431;-40
2023/10/10 11:11:27;;;;;;;24.27;5.05;;;20.70;99.90;;;;;;4991629;28;20384;-36
2023/10/10 11:13:54;;;;;;;25.33;5.20;;;20.70;99.90;;;;;;4991570;28;20025;-37
2023/10/10 11:16:24;;;;;;;26.38;5.60;;;20.80;99.90;;;;;;4991239;28;20022;-37
2023/10/10 11:18:57;;;;;;;19.55;4.82;;;20.80;99.90;;;;;;4993113;28;20558;-37
2023/10/10 11:21:27;;;;;;;23.92;4.93;;;20.80;99.90;;;;;;4995012;28;20314;-38
2023/10/10 11:23:57;;;;;;;26.30;4.93;;;20.80;99.90;;;;;;4995032;28;20022;-39
2023/10/10 11:26:23;;;;;;;24.38;5.15;;;20.80;99.90;;;;;;4994867;28;20050;-38
2023/10/10 11:28:49;;;;;;;20.30;4.75;;;20.80;99.90;;;;;;4995006;28;20534;-39
2023/10/10 11:31:23;;;;;;;18.17;4.55;;;20.70;99.90;;;;;;4994876;28;20026;-36
2023/10/10 11:33:55;;;;;;;24.20;5.25;;;20.80;99.90;;;;;;4994866;28;20113;-38
2023/10/10 11:36:29;;;;;;;27.08;5.47;;;20.80;99.90;;;;;;4994512;28;20038;-36
2023/10/10 11:38:56;;;;;;;15.90;4.57;;;20.80;99.90;;;;;;4995008;28;20026;-39
2023/10/10 11:41:31;;;;;;;22.35;5.38;;;20.80;99.90;;;;;;4994676;28;20062;-36
2023/10/10 11:44:02;;;;;;;23.10;5.50;;;20.80;99.90;;;;;;4994822;28;20149;-37
2023/10/10 11:46:29;;;;;;;22.30;4.90;;;20.80;99.90;;;;;;4994234;28;20153;-38
2023/10/10 11:48:55;;;;;;;27.25;4.88;;;20.70;99.90;;;;;;4994542;28;20033;-36
2023/10/10 11:51:34;;;;;;;21.80;5.07;;;20.70;99.90;;;;;;4994644;28;20027;-37
2023/10/10 11:54:00;;;;;;;17.30;4.97;;;20.70;99.90;;;;;;4994438;28;20030;-38
2023/10/10 11:56:26;;;;;;;14.93;4.47;;;20.70;99.90;;;;;;4994195;28;20030;-37
2023/10/10 11:58:52;;;;;;;17.40;4.75;;;20.70;99.90;;;;;;4994208;28;20392;-38
2023/10/10 12:01:49;;;;;;;13.77;4.63;;;20.70;99.90;;;;;;4994340;28;20027;-44
2023/10/10 12:04:20;;;;;;;18.40;4.38;;;20.70;99.90;;;;;;4994170;28;20034;-38
2023/10/10 12:06:47;;;;;;;15.02;4.20;;;20.70;99.90;;;;;;4994029;28;20030;-42
2023/10/10 12:09:19;;;;;;;20.63;4.60;;;20.70;99.90;;;;;;4994218;28;20030;-38
2023/10/10 12:11:45;;;;;;;11.73;3.97;;;20.60;99.90;;;;;;4994136;28;20050;-42
2023/10/10 12:14:18;;;;;;;17.42;4.40;;;20.70;99.90;;;;;;4994278;28;20484;-41
2023/10/10 12:16:50;;;;;;;11.87;4.67;;;20.60;99.90;;;;;;4994013;28;20030;-41
2023/10/10 12:19:16;;;;;;;17.10;4.25;;;20.60;99.90;;;;;;4994159;28;20034;-45
2023/10/10 12:21:42;;;;;;;12.10;4.22;;;20.60;99.90;;;;;;4993910;28;20044;-41
2023/10/10 12:24:07;;;;;;;13.60;4.78;;;20.60;99.90;;;;;;4993847;28;20487;-43
2023/10/10 12:26:38;;;;;;;12.43;3.92;;;20.60;99.90;;;;;;4993565;28;20027;-44
2023/10/10 12:29:04;;;;;;;9.75;3.83;;;20.60;99.90;;;;;;4993786;28;20109;-43
2023/10/10 12:31:33;;;;;;;15.25;4.13;;;20.60;99.90;;;;;;4993781;28;20097;-43
2023/10/10 12:34:00;;;;;;;11.70;4.10;;;20.50;99.90;;;;;;4993716;28;20057;-42
2023/10/10 12:36:32;;;;;;;10.18;3.33;;;20.60;99.90;;;;;;4993275;28;20023;-42
2023/10/10 12:38:59;;;;;;;13.18;3.95;;;20.60;99.90;;;;;;4994035;28;20053;-47
2023/10/10 12:41:26;;;;;;;11.45;3.83;;;20.50;99.90;;;;;;4976014;28;20026;-37
2023/10/10 12:43:52;;;;;;;12.48;3.97;;;20.50;99.90;;;;;;4993583;28;20392;-44
2023/10/10 12:46:20;;;;;;;10.52;3.78;;;20.50;99.90;;;;;;4993196;28;20395;-43
2023/10/10 12:48:48;;;;;;;11.75;3.72;;;20.50;99.90;;;;;;4993445;28;20046;-45
2023/10/10 12:51:14;;;;;;;9.90;3.80;;;20.50;99.90;;;;;;4993657;28;20101;-42
2023/10/10 12:53:40;;;;;;;10.65;3.45;;;20.50;99.90;;;;;;4993444;28;20058;-45
2023/10/10 12:56:16;;;;;;;11.35;3.72;;;20.50;99.90;;;;;;4993044;28;20400;-40
2023/10/10 12:58:43;;;;;;;9.48;3.78;;;20.50;99.90;;;;;;4993270;28;20026;-43
2023/10/10 13:01:15;;;;;;;11.25;4.00;;;20.50;99.90;;;;;;4993677;28;20030;-42
2023/10/10 13:03:42;;;;;;;14.60;3.90;;;20.50;99.90;;;;;;4993208;28;20081;-41
2023/10/10 13:06:09;;;;;;;9.27;3.35;;;20.50;99.90;;;;;;4992745;28;20033;-46
2023/10/10 13:08:47;;;;;;;7.20;3.33;;;20.50;99.90;;;;;;4993027;28;20026;-43
2023/10/10 13:11:19;;;;;;;9.65;3.58;;;20.40;99.90;;;;;;4993009;28;20033;-37
2023/10/10 13:13:48;;;;;;;11.80;4.15;;;20.50;99.90;;;;;;4993335;28;20077;-37
2023/10/10 13:19:06;;;;;;;16.40;3.90;;;20.40;99.90;;;;;;4996040;28;20064;-36
2023/10/10 13:21:34;;;;;;;8.70;3.42;;;20.40;99.90;;;;;;4993816;28;20034;-36
2023/10/10 13:24:00;;;;;;;12.95;3.70;;;20.40;99.90;;;;;;4975567;28;20402;-36
2023/10/10 13:26:27;;;;;;;8.15;3.80;;;20.40;99.90;;;;;;4992594;28;20033;-36
2023/10/10 13:28:54;;;;;;;11.48;4.07;;;20.40;99.90;;;;;;4992891;28;20074;-37
2023/10/10 13:31:24;;;;;;;7.65;3.20;;;20.40;99.90;;;;;;4992981;28;20073;-37
2023/10/10 13:33:50;;;;;;;8.85;3.88;;;20.40;99.90;;;;;;4992633;28;20034;-36
2023/10/10 13:36:16;;;;;;;12.23;3.35;;;20.40;99.90;;;;;;4992118;28;20034;-36
2023/10/10 13:38:47;;;;;;;8.98;3.50;;;20.40;99.90;;;;;;4993045;28;20117;-37
2023/10/10 13:41:16;;;;;;;7.45;3.53;;;20.30;99.90;;;;;;4992031;28;20026;-37
2023/10/10 13:43:47;;;;;;;9.43;3.58;;;20.40;99.90;;;;;;4992505;28;20018;-37
2023/10/10 13:46:16;;;;;;;7.80;3.67;;;20.40;99.90;;;;;;4992122;28;20022;-37
2023/10/10 13:48:42;;;;;;;8.85;3.25;;;20.30;99.90;;;;;;4992397;28;20015;-37
2023/10/10 13:51:09;;;;;;;8.90;2.92;;;20.30;99.90;;;;;;4992380;28;20429;-37
2023/10/10 13:53:36;;;;;;;9.00;3.40;;;20.30;99.90;;;;;;4992231;28;20022;-37
2023/10/10 13:56:04;;;;;;;7.75;3.10;;;20.30;99.90;;;;;;4992071;28;20479;-37
2023/10/10 13:58:30;;;;;;;9.95;3.70;;;20.30;99.90;;;;;;4992249;28;20030;-39
2023/10/10 14:01:13;;;;;;;6.63;3.03;;;20.30;99.90;;;;;;4992242;28;20034;-39
2023/10/10 14:03:46;;;;;;;6.70;3.03;;;20.20;99.90;;;;;;4992169;28;20404;-37
2023/10/10 14:06:34;;;;;;;11.00;3.03;;;20.20;99.90;;;;;;4991795;28;20026;-41
2023/10/10 14:09:00;;;;;;;8.68;3.35;;;20.20;99.90;;;;;;4992104;28;20026;-39
2023/10/10 14:11:26;;;;;;;9.15;3.10;;;20.20;99.90;;;;;;4992103;28;20033;-38
2023/10/10 14:13:55;;;;;;;8.20;3.17;;;20.20;99.90;;;;;;4992128;28;20027;-39
2023/10/10 14:16:23;;;;;;;7.82;3.30;;;20.20;99.90;;;;;;4991651;28;20101;-37
2023/10/10 14:18:51;;;;;;;7.43;3.25;;;20.20;99.90;;;;;;4992020;28;20026;-39
2023/10/10 14:21:25;;;;;;;8.88;3.20;;;20.20;99.90;;;;;;4991981;28;20026;-38
2023/10/10 14:23:59;;;;;;;10.50;3.08;;;20.20;99.90;;;;;;4991980;28;20117;-41
2023/10/10 14:26:30;;;;;;;7.45;3.28;;;20.20;99.90;;;;;;4991660;28;20037;-38
2023/10/10 14:28:57;;;;;;;6.32;2.85;;;20.20;99.90;;;;;;4991888;28;20030;-40
2023/10/10 14:31:27;;;;;;;6.68;2.88;;;20.20;99.90;;;;;;4991828;28;20018;-40
2023/10/10 14:33:54;;;;;;;7.28;3.10;;;20.20;99.90;;;;;;4991903;28;20027;-40
2023/10/10 14:36:20;;;;;;;6.50;3.05;;;20.20;99.90;;;;;;4973914;28;20046;-38
2023/10/10 14:38:50;;;;;;;11.07;3.17;;;20.20;99.90;;;;;;4991861;28;20217;-42
2023/10/10 14:41:21;;;;;;;6.53;2.90;;;20.20;99.90;;;;;;4991791;28;20027;-45
2023/10/10 14:43:51;;;;;;;7.65;3.05;;;20.20;99.90;;;;;;4974320;28;20076;-39
2023/10/10 14:46:21;;;;;;;6.90;2.90;;;20.20;99.90;;;;;;4991585;28;20033;-40
2023/10/10 14:48:51;;;;;;;6.57;3.13;;;20.10;99.90;;;;;;4991759;28;20550;-41
2023/10/10 14:51:17;;;;;;;7.90;3.17;;;20.20;99.90;;;;;;4991606;28;20026;-38
2023/10/10 14:53:50;;;;;;;6.80;3.42;;;20.20;99.90;;;;;;4993207;28;20069;-39
2023/10/10 14:56:19;;;;;;;9.10;3.28;;;20.20;99.90;;;;;;4995368;28;20093;-42
2023/10/10 14:58:48;;;;;;;7.65;3.17;;;20.20;99.90;;;;;;4995546;28;20109;-41
2023/10/10 15:01:17;;;;;;;7.65;3.35;;;20.10;99.90;;;;;;4995482;28;20023;-38
2023/10/10 15:03:44;;;;;;;5.75;2.92;;;20.20;99.90;;;;;;4978027;28;20031;-38
2023/10/10 15:06:09;;;;;;;8.93;2.97;;;20.20;99.90;;;;;;4995082;28;20509;-39
2023/10/10 15:08:35;;;;;;;8.30;2.90;;;20.10;99.90;;;;;;4995191;28;20034;-40
2023/10/10 15:11:01;;;;;;;5.20;2.97;;;20.20;99.90;;;;;;4995452;28;20026;-38
2023/10/10 15:13:26;;;;;;;8.02;3.03;;;20.10;99.90;;;;;;4995238;28;20118;-40
2023/10/10 15:15:52;;;;;;;7.38;2.80;;;20.10;99.90;;;;;;4977694;28;20026;-40
2023/10/10 15:18:19;;;;;;;7.72;3.38;;;20.10;99.90;;;;;;4995165;28;20101;-40
2023/10/10 15:20:50;;;;;;;7.80;3.10;;;20.10;99.90;;;;;;4995118;28;20105;-45
2023/10/10 15:23:20;;;;;;;8.05;3.10;;;20.10;99.90;;;;;;4995011;28;20038;-39